Terminal Aerodrome Forecast
Issued by NWS Wilmington, NC

Home | Current Version | Previous Version | Text Only | Print | Product List | Glossary On
Versions: 1 2 3 4 5 6 7 8 9 10 11 12 13 14 15 16 17 18 19 20
000
FTUS42 KILM 210000 AAA
TAFILM
TAF AMD
KILM 210050Z 2101/2124 02010KT P6SM -RA SCT015 BKN040
      TEMPO 2102/2106 6SM -RA BR BKN015
     FM210600 02011KT 6SM -RA BKN015
     FM211000 34012KT P6SM VCSH BKN025
     FM211300 33012G18KT P6SM SCT030=

USA.gov is the U.S. government's official web portal to all federal, state and local government web resources and services.